• Join FlightAware (Why Join?)
  • Login
  • US Flag 
09:50AM EDT


 

Airport Tracker/Info


-or-


 

Live Flight TrackerFlight Track Log ✈ DAL6035 ✈ 14-Apr-2013 ✈ KLGA - KMHT

Flight Track Log - Related Links

Times and Time Zones

All times are in EDT time to prevent confusion due to time zone crossing. See the DAL6035 flight status page for this flight to view local times or setup timezone preferences in your user account.

Time Position Orientation Groundspeed Altitude Reporting Facility
EDT Latitude Longitude Course Direction KTS MPH feet Rate Location/Type
11:39AM 40.8167 -73.9000 14° North 182 209 1,800  Level New York TRACON
11:40AM 40.8667 -73.8833 14° North 248 285 4,200 2,460 Climbing New York TRACON
11:41AM 40.9167 -73.8000 52° Northeast 267 307 6,800 2,460 Climbing New York TRACON
11:42AM 40.9667 -73.7500 37° Northeast 263 303 9,200 1,620 Climbing New York TRACON
11:44AM 41.1461 -73.5894 34° Northeast 337 388 12,400 1,380 Climbing Boston Center
11:45AM 41.2325 -73.5083 35° Northeast 365 420 14,100 1,500 Climbing Boston Center
11:46AM 41.3144 -73.4267 37° Northeast 370 426 15,500 1,560 Climbing Boston Center
11:47AM 41.4006 -73.3422 36° Northeast 370 426 17,200 1,500 Climbing Boston Center
11:48AM 41.4825 -73.2603 37° Northeast 370 426 18,500 1,260 Climbing Boston Center
11:49AM 41.5622 -73.1808 37° Northeast 375 432 19,800 1,260 Climbing Boston Center
11:50AM 41.6564 -73.1181 26° Northeast 375 432 21,100 1,320 Climbing Boston Center
11:51AM 41.7522 -73.1303 355° North 345 397 22,500 1,320 Climbing Boston Center
11:52AM 41.8500 -73.1453 353° North 340 391 23,800 1,320 Climbing Boston Center
11:53AM 41.9458 -73.1631 352° North 345 397 25,200 1,200 Climbing Boston Center
11:54AM 42.0436 -73.1781 354° North 353 406 26,300 840 Climbing Boston Center
11:55AM 42.1458 -73.1906 355° North 353 406 27,000 -60 Climbing Boston Center
11:56AM 42.2567 -73.1189 26° Northeast 367 422 26,200 -1,020 Descending Boston Center
11:57AM 42.3511 -72.9822 47° Northeast 409 471 25,000 -1,500 Descending Boston Center
11:58AM 42.4311 -72.8283 55° Northeast 443 510 23,300 -1,620 Descending Boston Center
11:59AM 42.5189 -72.7047 46° Northeast 455 524 21,900 -1,620 Descending Boston Center
12:00PM 42.6108 -72.5783 45° Northeast 461 531 20,100 -2,340 Descending Boston Center
12:01PM 42.6942 -72.4428 50° Northeast 444 511 17,300 -2,760 Descending Boston Center
12:02PM 42.7672 -72.3325 48° Northeast 411 473 14,600 -2,460 Descending Boston Center
12:03PM 42.8003 -72.2081 70° East 380 437 12,400 -2,040 Descending Boston Center
12:04PM 42.8083 -72.0836 85° East 331 381 10,500 -1,680 Descending Boston Center
12:05PM 42.8058 -71.9731 92° East 307 353 9,200 -1,380 Descending Boston Center
12:06PM 42.7992 -71.8714 95° East 274 315 7,800 -1,200 Descending Boston Center
12:07PM 42.7922 -71.7694 95° East 274 315 6,800 -1,440 Descending Boston Center
12:08PM 42.7856 -71.6733 95° East 268 308 5,000 -1,740 Descending Boston Center
12:09PM 42.7786 -71.5772 96° East 255 293 3,400 -1,080 Descending Boston Center
12:10PM 42.7736 -71.4897 94° East 245 282 2,900 -480 Descending Boston Center
12:11PM 42.7875 -71.4047 77° East 228 262 2,500 -480 Descending Boston Center
12:12PM 42.8394 -71.3839 16° North 180 207 2,000 -600 Descending Boston Center
12:13PM 42.8769 -71.4003 342° North 143 165 1,300 -780 Descending Boston Center
12:14PM 42.9086 -71.4225 333° Northwest 132 152 500 -480 Descending Boston Center
12:15PM 42.9400 -71.4389 339° North 132 152 400 4,200 Descending Boston Center
12:16PM 42.9714 -71.4611 333° Northwest 132 152 9,000 4,260 Climbing Boston Center
12:17PM 43.0028 -71.4806 336° Northwest 132 152 9,000  Level Boston Center